Stations météo

réclame
Mon MeteoGroup
Mont-Rigi, Belgique (6494): Température de l'air & dewpoint: 12.02.2019 18:00:00 - 18.02.2019 18:00:00 (CET)Mont-Rigi, Belgique (6494): Vitesse du vent & gusts: 12.02.2019 18:00:00 - 18.02.2019 18:00:00 (CET)Mont-Rigi, Belgique (6494): Direction du vent: 12.02.2019 18:00:00 - 18.02.2019 18:00:00 (CET)Mont-Rigi, Belgique (6494): reduced air pressure: 12.02.2019 18:00:00 - 18.02.2019 18:00:00 (CET)Mont-Rigi, Belgique (6494): Ensoleillement: 12.02.2019 18:00:00 - 18.02.2019 18:00:00 (CET)Mont-Rigi, Belgique (6494): Quantités de précipitations: 12.02.2019 18:00:00 - 18.02.2019 18:00:00 (CET)
Date & Time tt [°C] td [°C] ff [km/h] ff [knt] fx [km/h] fx [knt] dd ppp [hPa] sd [min] rr [mm]
18.02.2019 18:00:00 - - - - - - - - - -
18.02.2019 17:00:00 8,3 -0,3 14 8 30 16 S 1016,4 0 0,0
18.02.2019 16:00:00 9,2 -0,3 18 10 29 15 S 1016,3 0 0,0
18.02.2019 15:00:00 10,7 -1,4 16 9 30 16 S 1015,8 0 0,0
18.02.2019 14:00:00 - - - - - - - - - -
18.02.2019 13:00:00 11,0 -1,4 14 8 25 14 S 1017,1 0 0,0
18.02.2019 12:00:00 10,1 -0,9 14 7 27 15 SSE 1017,9 0 0,0
18.02.2019 11:00:00 7,8 -0,8 15 8 26 14 S 1019,0 0 0,0
18.02.2019 10:00:00 6,8 -1,4 12 6 19 10 S 1019,5 0 0,0
18.02.2019 09:00:00 5,3 -1,6 4 2 11 6 SW 1020,1 0 0,0
18.02.2019 08:00:00 4,2 -2,3 8 4 13 7 S 1020,6 0 0,0
18.02.2019 07:00:00 4,2 -2,7 7 4 13 7 SSW 1020,8 0 0,0
18.02.2019 06:00:00 4,2 -2,6 6 4 14 7 SSW 1020,8 0 0,0
18.02.2019 05:00:00 4,0 -2,5 7 4 14 8 SSW 1021,0 0 0,0
18.02.2019 04:00:00 4,4 -2,2 7 4 17 9 SW 1021,0 0 0,0
18.02.2019 03:00:00 5,2 -2,2 12 6 15 8 S 1021,0 0 0,0
18.02.2019 02:00:00 3,8 -2,5 7 4 14 8 S 1021,8 0 0,0
18.02.2019 01:00:00 5,3 -2,0 11 6 18 10 S 1021,5 0 0,0
18.02.2019 00:00:00 5,0 -2,6 10 6 19 10 S 1021,8 0 0,0
17.02.2019 23:00:00 5,4 -1,9 13 7 22 12 S 1021,8 0 0,0
17.02.2019 22:00:00 6,1 -1,4 16 9 23 12 S 1021,6 0 0,0
17.02.2019 21:00:00 5,6 -1,6 13 7 22 12 S 1021,8 0 0,0
17.02.2019 20:00:00 6,3 -1,5 15 8 22 12 S 1021,6 0 0,0
17.02.2019 19:00:00 6,7 -1,3 14 8 22 12 SSE 1021,2 0 0,0
17.02.2019 18:00:00 8,2 -1,8 12 6 26 14 SSE 1020,5 0 0,0
17.02.2019 17:00:00 10,9 -2,2 16 9 31 17 S 1019,8 0 0,0
17.02.2019 16:00:00 - - - - - - - - - -
17.02.2019 15:00:00 13,1 -2,2 20 11 32 18 S 1019,4 0 0,0
17.02.2019 14:00:00 12,9 -2,5 16 9 29 16 S 1019,9 0 0,0
17.02.2019 13:00:00 12,3 -1,8 18 10 32 17 S 1020,6 0 0,0
17.02.2019 12:00:00 9,7 -1,6 22 12 35 19 S 1021,7 0 0,0
17.02.2019 11:00:00 7,3 -1,3 17 9 27 15 S 1022,3 0 0,0
17.02.2019 10:00:00 6,4 -1,4 16 8 27 15 SSE 1022,9 0 0,0
17.02.2019 09:00:00 5,2 -0,8 12 7 22 12 S 1023,4 0 0,0
17.02.2019 08:00:00 4,9 -1,1 16 8 23 12 SSE 1023,4 0 0,0
17.02.2019 07:00:00 4,3 -0,3 14 8 22 12 SSE 1023,5 0 0,0
17.02.2019 06:00:00 4,9 -0,2 15 8 21 12 S 1023,9 0 0,0
17.02.2019 05:00:00 4,7 -0,5 12 7 21 12 S 1024,2 0 0,0
17.02.2019 04:00:00 4,6 0,5 11 6 17 9 S 1024,6 0 0,0
17.02.2019 03:00:00 5,0 0,5 10 5 18 10 S 1025,1 0 0,0
17.02.2019 02:00:00 4,2 -0,8 7 4 14 8 S 1025,7 0 0,0
17.02.2019 01:00:00 4,2 -0,3 4 2 12 7 SSW 1026,2 0 0,0
17.02.2019 00:00:00 3,9 -0,4 5 3 13 7 SSE 1026,4 0 0,0
16.02.2019 23:00:00 4,1 0,2 7 4 14 8 SE 1026,6 0 0,0
16.02.2019 22:00:00 4,2 -0,3 8 5 13 7 SE 1026,8 0 0,0
16.02.2019 21:00:00 4,8 0,4 4 2 16 8 SSW 1026,8 0 0,0
16.02.2019 20:00:00 5,6 0,5 11 6 14 8 SE 1026,4 0 0,0
16.02.2019 19:00:00 6,4 -0,6 11 6 11 6 SE 1026,4 0 0,0
16.02.2019 18:00:00 7,4 -4,6 4 2 10 5 WNW 1026,2 0 0,0
16.02.2019 17:00:00 13,3 -4,4 8 5 14 8 SW 1024,6 0 0,0
16.02.2019 16:00:00 14,3 -4,8 9 5 17 9 SW 1024,5 0 0,0
16.02.2019 15:00:00 - - - - - - - - - -
16.02.2019 14:00:00 13,4 -3,2 16 8 30 16 SW 1025,0 0 0,0
16.02.2019 13:00:00 12,2 -2,7 22 12 32 18 SW 1025,6 0 0,0
16.02.2019 12:00:00 10,9 -0,4 19 10 29 16 SW 1026,1 0 0,0
16.02.2019 11:00:00 9,0 -1,3 13 7 25 13 SSW 1026,7 0 0,0
16.02.2019 10:00:00 7,3 -1,6 9 5 19 10 SW 1026,8 0 0,0
16.02.2019 09:00:00 - - - - - - - - - -
16.02.2019 08:00:00 3,2 -3,5 6 3 11 6 SSW 1027,8 0 0,0
16.02.2019 07:00:00 4,6 -3,6 11 6 22 12 S 1027,1 0 0,0
16.02.2019 06:00:00 4,9 -3,0 15 8 23 13 SSE 1027,3 0 0,0
16.02.2019 05:00:00 4,5 -2,9 12 7 22 12 SSE 1027,5 0 0,0
16.02.2019 04:00:00 4,8 -2,6 16 9 24 13 S 1027,8 0 0,0
16.02.2019 03:00:00 4,4 -2,1 13 7 22 12 SSE 1028,3 0 0,0
16.02.2019 02:00:00 5,0 -2,6 11 6 23 13 S 1028,2 0 0,0
16.02.2019 01:00:00 5,0 -2,4 14 8 24 13 S 1028,5 0 0,0
16.02.2019 00:00:00 6,1 -2,3 16 9 30 16 SSE 1028,2 0 0,0
15.02.2019 23:00:00 6,5 -2,1 18 10 30 16 S 1028,4 0 0,0
15.02.2019 22:00:00 7,0 -2,1 18 10 31 17 S 1028,4 0 0,0
15.02.2019 21:00:00 7,4 -1,8 20 11 28 15 SSE 1028,3 0 0,0
15.02.2019 20:00:00 7,4 -3,7 13 7 24 13 S 1029,0 0 0,0
15.02.2019 19:00:00 8,8 -4,6 14 8 21 11 SSE 1028,5 0 0,0
15.02.2019 18:00:00 10,6 -5,4 14 8 28 15 SSE 1028,2 0 0,0
15.02.2019 17:00:00 13,2 -4,4 13 7 27 15 SSE 1027,7 0 0,0
15.02.2019 16:00:00 - - - - - - - - - -
15.02.2019 15:00:00 14,8 -4,5 14 8 27 15 S 1028,5 0 0,0
15.02.2019 14:00:00 14,2 -5,6 19 11 30 16 S 1029,2 0 0,0
15.02.2019 13:00:00 13,2 -3,7 18 10 30 16 SSE 1030,2 0 0,0
15.02.2019 12:00:00 12,1 -5,1 17 9 30 16 SSE 1030,9 0 0,0
15.02.2019 11:00:00 10,3 -5,8 18 10 30 16 S 1031,5 0 0,0
15.02.2019 10:00:00 9,6 -8,0 15 8 25 13 S 1031,8 0 0,0
15.02.2019 09:00:00 8,1 -8,1 13 7 19 11 SSE 1032,4 0 0,0
15.02.2019 08:00:00 4,7 -12,0 9 5 14 8 S 1033,4 0 0,0
15.02.2019 07:00:00 4,6 -13,6 7 4 15 8 SSW 1033,3 0 0,0
15.02.2019 06:00:00 5,5 -13,6 10 5 16 9 SSE 1033,2 0 0,0
15.02.2019 05:00:00 4,5 -14,8 6 3 16 8 SSE 1033,7 0 0,0
15.02.2019 04:00:00 5,4 -14,9 9 5 16 9 SSE 1033,6 0 0,0
15.02.2019 03:00:00 5,9 -15,2 9 5 26 14 SSE 1033,9 0 0,0
15.02.2019 02:00:00 6,4 -11,9 18 10 28 15 SSE 1033,7 0 0,0
15.02.2019 01:00:00 6,7 -10,1 14 8 26 14 SSE 1033,6 0 0,0
15.02.2019 00:00:00 6,5 -10,2 14 8 25 13 SSE 1033,7 0 0,0
14.02.2019 23:00:00 6,1 -8,5 14 8 23 12 SE 1034,1 0 0,0
14.02.2019 22:00:00 6,1 -9,5 11 6 19 10 SSE 1034,4 0 0,0
14.02.2019 21:00:00 6,4 -9,5 13 7 19 10 SSE 1034,3 0 0,0
14.02.2019 20:00:00 6,4 -9,4 13 7 18 10 SSE 1034,5 0 0,0
14.02.2019 19:00:00 6,6 -9,7 11 6 18 10 SSE 1034,6 0 0,0
14.02.2019 18:00:00 6,7 -7,9 12 6 15 8 SE 1034,3 0 0,0
14.02.2019 17:00:00 9,6 -9,2 11 6 16 9 SE 1033,9 0 0,0
14.02.2019 16:00:00 11,2 -11,0 9 5 22 12 SE 1033,8 0 0,0
14.02.2019 15:00:00 11,9 -8,6 13 7 22 12 S 1033,7 0 0,0
14.02.2019 14:00:00 11,4 -9,0 12 6 23 12 SE 1034,2 0 0,0
14.02.2019 13:00:00 - - - - - - - - - -
14.02.2019 12:00:00 10,2 -8,3 11 6 20 11 SSE 1035,6 0 0,0
14.02.2019 11:00:00 8,8 -8,2 11 6 19 10 SSE 1035,8 0 0,0
14.02.2019 10:00:00 7,8 -7,7 8 4 12 7 S 1036,0 0 0,0
14.02.2019 09:00:00 5,2 -7,6 7 4 10 6 S 1036,5 0 0,0
14.02.2019 08:00:00 - - - - - - - - - -
14.02.2019 07:00:00 1,3 -7,0 4 2 8 5 S 1037,0 0 0,0
14.02.2019 06:00:00 2,3 -7,1 7 4 10 6 S 1036,5 0 0,0
14.02.2019 05:00:00 2,7 -8,6 6 4 10 5 S 1036,3 0 0,0
14.02.2019 04:00:00 2,0 -9,5 6 3 10 6 SSW 1036,5 0 0,0
14.02.2019 03:00:00 2,9 -9,3 8 4 10 5 S 1036,0 0 0,0
14.02.2019 02:00:00 0,6 -11,0 5 3 8 4 S 1037,2 0 0,0
14.02.2019 01:00:00 0,7 -12,0 4 2 11 6 SSW 1037,1 0 0,0
14.02.2019 00:00:00 1,6 -10,0 8 4 14 7 SSW 1036,7 0 0,0
13.02.2019 23:00:00 0,5 -5,9 6 3 8 4 S 1037,4 0 0,0
13.02.2019 22:00:00 0,2 -3,6 4 2 6 4 S 1037,5 0 0,0
13.02.2019 21:00:00 -0,3 -2,1 4 2 9 5 SSE 1037,4 0 0,0
13.02.2019 20:00:00 0,4 -1,1 5 3 10 5 S 1037,4 0 0,0
13.02.2019 19:00:00 0,2 -1,5 7 4 11 6 S 1037,1 0 0,0
13.02.2019 18:00:00 0,9 -1,1 8 4 12 7 S 1037,1 0 0,0
13.02.2019 17:00:00 2,2 -0,5 7 4 11 6 S 1036,3 0 0,0
13.02.2019 16:00:00 3,9 -0,6 7 4 12 6 S 1035,7 0 0,0
13.02.2019 15:00:00 5,3 -1,1 6 3 8 5 S 1035,6 0 0,0
13.02.2019 14:00:00 4,6 -2,1 5 3 13 7 SSW 1035,9 0 0,0
13.02.2019 13:00:00 4,5 -0,2 8 5 13 7 SSW 1036,1 0 0,0
13.02.2019 12:00:00 2,5 -0,7 8 4 16 9 SSW 1036,9 0 0,0
13.02.2019 11:00:00 1,3 -0,9 9 5 15 8 SSW 1037,1 0 0,0
13.02.2019 10:00:00 -0,3 -1,0 9 5 13 7 SSW 1037,7 0 0,0
13.02.2019 09:00:00 -2,6 -3,3 5 3 7 4 SW 1038,2 0 0,0
13.02.2019 08:00:00 -4,2 -5,1 4 2 9 5 SW 1038,4 0 0,0
13.02.2019 07:00:00 -3,7 -4,5 7 4 11 6 S 1037,9 0 0,0
13.02.2019 06:00:00 -4,3 -5,2 7 4 11 6 SSW 1038,1 0 0,0
13.02.2019 05:00:00 -3,6 -4,4 7 4 9 5 SSW 1037,9 0 0,0
13.02.2019 04:00:00 -3,5 -4,3 4 2 6 3 SSE 1038,3 0 0,0
13.02.2019 03:00:00 -3,9 -4,7 5 3 9 5 SW 1039,1 0 0,0
13.02.2019 02:00:00 -3,8 -4,6 5 3 11 6 SSW 1038,6 0 0,0
13.02.2019 01:00:00 -2,9 -3,6 7 4 12 7 SSW 1038,0 0 0,0
13.02.2019 00:00:00 -2,3 -2,9 9 5 16 9 SW 1037,9 0 0,0
12.02.2019 23:00:00 -1,7 -2,4 11 6 19 10 SW 1037,3 0 0,0
12.02.2019 22:00:00 -1,1 -1,8 14 8 21 11 SW 1037,1 0 0,0
12.02.2019 21:00:00 -0,9 -1,7 11 6 18 10 SW 1037,0 0 0,0
12.02.2019 20:00:00 -1,0 -1,9 8 5 13 7 WSW 1036,9 0 0,0
12.02.2019 19:00:00 -0,8 -1,8 7 4 13 7 SW 1036,9 0 0,0
12.02.2019 18:00:00 0,1 -1,0 8 4 11 6 WSW 1036,3 0 0,0

tt = Température de l'air
td = dewpoint
ff = Vitesse du vent
fx = gusts
dd = Direction du vent
ppp = reduced air pressure
sd = Ensoleillement
rr = Quantités de précipitations

stations d'obs. à proximité